sensor_id;sensor_type;location;lat;lon;timestamp;pressure;altitude;pressure_sealevel;temperature;humidity
78741;BME280;68062;48.726;9.370;2023-09-08T00:01:58;98983.22;;;14.44;100.00
78741;BME280;68062;48.726;9.370;2023-09-08T00:04:25;98932.69;;;14.18;100.00
78741;BME280;68062;48.726;9.370;2023-09-08T00:06:52;98982.28;;;14.46;100.00
78741;BME280;68062;48.726;9.370;2023-09-08T00:09:20;98978.09;;;14.39;100.00
78741;BME280;68062;48.726;9.370;2023-09-08T00:11:46;98980.94;;;14.19;100.00
78741;BME280;68062;48.726;9.370;2023-09-08T00:14:12;98975.75;;;14.20;100.00
78741;BME280;68062;48.726;9.370;2023-09-08T00:16:38;98938.16;;;13.94;100.00
78741;BME280;68062;48.726;9.370;2023-09-08T00:19:08;98977.91;;;13.86;100.00
78741;BME280;68062;48.726;9.370;2023-09-08T00:21:35;98975.81;;;14.16;100.00
78741;BME280;68062;48.726;9.370;2023-09-08T00:24:03;98952.47;;;14.22;100.00
78741;BME280;68062;48.726;9.370;2023-09-08T00:26:32;98969.47;;;14.38;100.00
78741;BME280;68062;48.726;9.370;2023-09-08T00:28:59;98966.91;;;14.37;100.00
78741;BME280;68062;48.726;9.370;2023-09-08T00:31:26;98965.97;;;14.42;100.00
78741;BME280;68062;48.726;9.370;2023-09-08T00:33:52;98969.34;;;14.46;100.00
78741;BME280;68062;48.726;9.370;2023-09-08T00:36:19;98972.81;;;14.47;100.00
78741;BME280;68062;48.726;9.370;2023-09-08T00:38:45;98924.94;;;14.18;100.00
78741;BME280;68062;48.726;9.370;2023-09-08T00:41:12;98970.56;;;14.20;100.00
78741;BME280;68062;48.726;9.370;2023-09-08T00:43:40;98968.41;;;13.88;100.00
78741;BME280;68062;48.726;9.370;2023-09-08T00:46:07;98969.84;;;14.10;100.00
78741;BME280;68062;48.726;9.370;2023-09-08T00:48:34;98967.34;;;14.03;100.00
78741;BME280;68062;48.726;9.370;2023-09-08T00:51:03;98974.56;;;13.76;100.00
78741;BME280;68062;48.726;9.370;2023-09-08T00:53:31;98971.00;;;13.88;100.00
78741;BME280;68062;48.726;9.370;2023-09-08T00:55:58;98976.97;;;13.93;100.00
78741;BME280;68062;48.726;9.370;2023-09-08T00:58:25;98979.50;;;13.94;100.00
78741;BME280;68062;48.726;9.370;2023-09-08T01:00:54;98970.03;;;13.93;100.00
78741;BME280;68062;48.726;9.370;2023-09-08T01:03:22;98971.78;;;13.93;100.00
78741;BME280;68062;48.726;9.370;2023-09-08T01:05:49;98971.72;;;13.99;100.00
78741;BME280;68062;48.726;9.370;2023-09-08T01:08:16;98977.75;;;13.96;100.00
78741;BME280;68062;48.726;9.370;2023-09-08T01:10:45;98973.78;;;13.69;100.00
78741;BME280;68062;48.726;9.370;2023-09-08T01:13:13;98975.47;;;13.73;100.00
78741;BME280;68062;48.726;9.370;2023-09-08T01:15:40;98977.97;;;13.79;100.00
78741;BME280;68062;48.726;9.370;2023-09-08T01:18:08;98971.88;;;13.85;100.00
78741;BME280;68062;48.726;9.370;2023-09-08T01:20:56;98979.72;;;13.76;100.00
78741;BME280;68062;48.726;9.370;2023-09-08T01:23:37;98980.97;;;13.37;100.00
78741;BME280;68062;48.726;9.370;2023-09-08T01:26:13;98988.91;;;13.19;100.00
78741;BME280;68062;48.726;9.370;2023-09-08T01:28:44;98989.56;;;13.36;100.00
78741;BME280;68062;48.726;9.370;2023-09-08T01:31:11;98981.66;;;13.55;100.00
78741;BME280;68062;48.726;9.370;2023-09-08T01:33:39;98979.94;;;13.59;100.00
78741;BME280;68062;48.726;9.370;2023-09-08T01:36:07;98983.19;;;13.76;100.00
78741;BME280;68062;48.726;9.370;2023-09-08T01:38:34;98984.00;;;13.80;100.00
78741;BME280;68062;48.726;9.370;2023-09-08T01:41:00;98979.91;;;13.62;100.00
78741;BME280;68062;48.726;9.370;2023-09-08T01:43:29;98979.03;;;13.63;100.00
78741;BME280;68062;48.726;9.370;2023-09-08T01:45:56;98978.28;;;13.50;100.00
78741;BME280;68062;48.726;9.370;2023-09-08T01:48:23;98976.50;;;13.55;100.00
78741;BME280;68062;48.726;9.370;2023-09-08T01:50:49;98965.34;;;13.53;100.00
78741;BME280;68062;48.726;9.370;2023-09-08T01:53:17;98965.38;;;13.50;100.00
78741;BME280;68062;48.726;9.370;2023-09-08T01:55:43;98968.03;;;13.42;100.00
78741;BME280;68062;48.726;9.370;2023-09-08T01:58:11;98943.91;;;13.40;100.00
78741;BME280;68062;48.726;9.370;2023-09-08T02:00:39;98967.31;;;13.24;100.00
78741;BME280;68062;48.726;9.370;2023-09-08T02:03:06;98964.94;;;13.03;100.00
78741;BME280;68062;48.726;9.370;2023-09-08T02:05:33;98964.88;;;13.09;100.00
78741;BME280;68062;48.726;9.370;2023-09-08T02:08:05;98966.50;;;13.21;100.00
78741;BME280;68062;48.726;9.370;2023-09-08T02:10:32;98956.19;;;13.21;100.00
78741;BME280;68062;48.726;9.370;2023-09-08T02:12:59;98964.91;;;13.06;100.00
78741;BME280;68062;48.726;9.370;2023-09-08T02:15:25;98920.38;;;12.79;100.00
78741;BME280;68062;48.726;9.370;2023-09-08T02:17:55;98961.44;;;13.12;100.00
78741;BME280;68062;48.726;9.370;2023-09-08T02:20:22;98962.19;;;13.21;100.00
78741;BME280;68062;48.726;9.370;2023-09-08T02:22:52;98963.91;;;13.24;100.00
78741;BME280;68062;48.726;9.370;2023-09-08T02:25:20;98959.78;;;13.01;100.00
78741;BME280;68062;48.726;9.370;2023-09-08T02:27:49;98963.28;;;12.95;100.00
78741;BME280;68062;48.726;9.370;2023-09-08T02:30:16;98959.88;;;12.90;100.00
78741;BME280;68062;48.726;9.370;2023-09-08T02:32:43;98953.75;;;13.01;100.00
78741;BME280;68062;48.726;9.370;2023-09-08T02:35:14;98959.72;;;13.09;100.00
78741;BME280;68062;48.726;9.370;2023-09-08T02:37:40;98965.94;;;12.83;100.00
78741;BME280;68062;48.726;9.370;2023-09-08T02:40:07;98966.81;;;12.84;100.00
78741;BME280;68062;48.726;9.370;2023-09-08T02:42:36;98972.84;;;12.81;100.00
78741;BME280;68062;48.726;9.370;2023-09-08T02:45:03;98968.50;;;12.86;100.00
78741;BME280;68062;48.726;9.370;2023-09-08T02:47:30;98971.03;;;12.94;100.00
78741;BME280;68062;48.726;9.370;2023-09-08T02:49:58;98967.66;;;12.84;100.00
78741;BME280;68062;48.726;9.370;2023-09-08T02:52:27;98963.38;;;12.80;100.00
78741;BME280;68062;48.726;9.370;2023-09-08T02:54:54;98966.78;;;12.85;100.00
78741;BME280;68062;48.726;9.370;2023-09-08T02:57:20;98973.56;;;12.99;100.00
78741;BME280;68062;48.726;9.370;2023-09-08T02:59:49;98968.47;;;12.91;100.00
78741;BME280;68062;48.726;9.370;2023-09-08T03:02:16;98971.81;;;13.01;100.00
78741;BME280;68062;48.726;9.370;2023-09-08T03:04:43;98967.59;;;12.90;100.00
78741;BME280;68062;48.726;9.370;2023-09-08T03:07:10;98965.81;;;13.00;100.00
78741;BME280;68062;48.726;9.370;2023-09-08T03:09:38;98964.13;;;12.94;100.00
78741;BME280;68062;48.726;9.370;2023-09-08T03:12:05;98967.63;;;12.87;100.00
78741;BME280;68062;48.726;9.370;2023-09-08T03:14:31;98967.66;;;12.84;100.00
78741;BME280;68062;48.726;9.370;2023-09-08T03:16:58;98971.97;;;12.84;100.00
78741;BME280;68062;48.726;9.370;2023-09-08T03:19:25;98967.63;;;12.92;100.00
78741;BME280;68062;48.726;9.370;2023-09-08T03:21:51;98970.22;;;12.89;100.00
78741;BME280;68062;48.726;9.370;2023-09-08T03:24:18;98970.34;;;12.72;100.00
78741;BME280;68062;48.726;9.370;2023-09-08T03:26:46;98970.31;;;12.76;100.00
78741;BME280;68062;48.726;9.370;2023-09-08T03:29:13;98968.47;;;12.89;100.00
78741;BME280;68062;48.726;9.370;2023-09-08T03:31:40;98968.47;;;12.89;100.00
78741;BME280;68062;48.726;9.370;2023-09-08T03:34:07;98971.97;;;12.84;100.00
78741;BME280;68062;48.726;9.370;2023-09-08T03:36:34;98964.31;;;12.74;100.00
78741;BME280;68062;48.726;9.370;2023-09-08T03:39:02;98976.38;;;12.69;100.00
78741;BME280;68062;48.726;9.370;2023-09-08T03:41:29;98961.78;;;12.68;100.00
78741;BME280;68062;48.726;9.370;2023-09-08T03:43:57;98972.13;;;12.62;100.00
78741;BME280;68062;48.726;9.370;2023-09-08T03:46:24;98957.47;;;12.70;100.00
78741;BME280;68062;48.726;9.370;2023-09-08T03:48:51;98921.66;;;12.22;100.00
78741;BME280;68062;48.726;9.370;2023-09-08T03:51:24;98952.59;;;12.22;100.00
78741;BME280;68062;48.726;9.370;2023-09-08T03:53:50;98966.25;;;12.38;100.00
78741;BME280;68062;48.726;9.370;2023-09-08T03:56:17;98964.47;;;12.48;100.00
78741;BME280;68062;48.726;9.370;2023-09-08T03:58:45;98973.88;;;12.57;100.00
78741;BME280;68062;48.726;9.370;2023-09-08T04:01:13;98967.91;;;12.48;100.00
78741;BME280;68062;48.726;9.370;2023-09-08T04:03:40;98980.00;;;12.43;100.00
78741;BME280;68062;48.726;9.370;2023-09-08T04:06:07;98972.31;;;12.29;100.00
78741;BME280;68062;48.726;9.370;2023-09-08T04:08:34;98974.84;;;12.39;100.00
78741;BME280;68062;48.726;9.370;2023-09-08T04:11:01;98980.88;;;12.36;100.00
78741;BME280;68062;48.726;9.370;2023-09-08T04:13:27;98980.03;;;12.32;100.00
78741;BME280;68062;48.726;9.370;2023-09-08T04:15:54;98983.44;;;12.41;100.00
78741;BME280;68062;48.726;9.370;2023-09-08T04:18:22;98986.00;;;12.45;100.00
78741;BME280;68062;48.726;9.370;2023-09-08T04:20:49;98986.94;;;12.27;100.00
78741;BME280;68062;48.726;9.370;2023-09-08T04:23:16;98982.72;;;12.07;100.00
78741;BME280;68062;48.726;9.370;2023-09-08T04:25:43;98984.53;;;11.90;100.00
78741;BME280;68062;48.726;9.370;2023-09-08T04:28:09;98985.34;;;12.06;100.00
78741;BME280;68062;48.726;9.370;2023-09-08T04:30:36;98985.25;;;12.25;100.00
78741;BME280;68062;48.726;9.370;2023-09-08T04:33:03;98992.06;;;12.35;100.00
78741;BME280;68062;48.726;9.370;2023-09-08T04:35:32;98988.66;;;12.25;100.00
78741;BME280;68062;48.726;9.370;2023-09-08T04:37:59;98993.81;;;12.30;100.00
78741;BME280;68062;48.726;9.370;2023-09-08T04:40:27;98991.19;;;12.38;100.00
78741;BME280;68062;48.726;9.370;2023-09-08T04:42:54;98992.06;;;12.33;100.00
78741;BME280;68062;48.726;9.370;2023-09-08T04:45:21;99004.19;;;12.20;100.00
78741;BME280;68062;48.726;9.370;2023-09-08T04:47:48;98996.41;;;12.30;100.00
78741;BME280;68062;48.726;9.370;2023-09-08T04:50:16;99005.84;;;12.34;100.00
78741;BME280;68062;48.726;9.370;2023-09-08T04:52:44;99003.22;;;12.40;100.00
78741;BME280;68062;48.726;9.370;2023-09-08T04:55:11;99004.06;;;12.41;100.00
78741;BME280;68062;48.726;9.370;2023-09-08T04:57:38;99003.19;;;12.42;100.00
78741;BME280;68062;48.726;9.370;2023-09-08T05:00:05;99007.53;;;12.38;100.00
78741;BME280;68062;48.726;9.370;2023-09-08T05:02:33;99005.03;;;12.15;100.00
78741;BME280;68062;48.726;9.370;2023-09-08T05:04:59;98995.63;;;11.98;100.00
78741;BME280;68062;48.726;9.370;2023-09-08T05:07:26;99001.72;;;11.88;100.00
78741;BME280;68062;48.726;9.370;2023-09-08T05:09:54;98997.41;;;11.87;100.00
78741;BME280;68062;48.726;9.370;2023-09-08T05:12:21;99006.84;;;11.86;100.00
78741;BME280;68062;48.726;9.370;2023-09-08T05:14:48;99003.44;;;11.80;100.00
78741;BME280;68062;48.726;9.370;2023-09-08T05:17:14;99001.63;;;12.14;100.00
78741;BME280;68062;48.726;9.370;2023-09-08T05:19:41;99002.34;;;12.40;100.00
78741;BME280;68062;48.726;9.370;2023-09-08T05:22:07;99003.13;;;12.54;100.00
78741;BME280;68062;48.726;9.370;2023-09-08T05:24:34;99002.22;;;12.63;100.00
78741;BME280;68062;48.726;9.370;2023-09-08T05:27:03;99002.22;;;12.63;100.00
78741;BME280;68062;48.726;9.370;2023-09-08T05:29:30;99007.34;;;12.72;100.00
78741;BME280;68062;48.726;9.370;2023-09-08T05:31:57;98995.31;;;12.66;100.00
78741;BME280;68062;48.726;9.370;2023-09-08T05:34:23;99008.97;;;12.81;100.00
78741;BME280;68062;48.726;9.370;2023-09-08T05:36:50;99015.00;;;12.85;100.00
78741;BME280;68062;48.726;9.370;2023-09-08T05:39:17;99021.84;;;12.87;100.00
78741;BME280;68062;48.726;9.370;2023-09-08T05:41:44;99012.41;;;12.85;100.00
78741;BME280;68062;48.726;9.370;2023-09-08T05:44:13;99024.34;;;12.98;100.00
78741;BME280;68062;48.726;9.370;2023-09-08T05:46:40;99005.59;;;12.74;100.00
78741;BME280;68062;48.726;9.370;2023-09-08T05:49:07;99026.13;;;12.93;100.00
78741;BME280;68062;48.726;9.370;2023-09-08T05:51:35;99027.72;;;13.05;100.00
78741;BME280;68062;48.726;9.370;2023-09-08T05:54:02;99029.28;;;13.24;100.00
78741;BME280;68062;48.726;9.370;2023-09-08T05:56:30;99022.38;;;13.28;100.00
78741;BME280;68062;48.726;9.370;2023-09-08T05:58:58;99024.00;;;13.42;100.00
78741;BME280;68062;48.726;9.370;2023-09-08T06:01:27;99022.19;;;13.51;100.00
78741;BME280;68062;48.726;9.370;2023-09-08T06:03:55;99020.38;;;13.63;100.00
78741;BME280;68062;48.726;9.370;2023-09-08T06:06:24;99025.53;;;13.63;100.00
78741;BME280;68062;48.726;9.370;2023-09-08T06:08:51;99021.88;;;13.82;100.00
78741;BME280;68062;48.726;9.370;2023-09-08T06:11:19;99020.66;;;14.79;100.00
78741;BME280;68062;48.726;9.370;2023-09-08T06:13:47;99008.94;;;16.08;100.00
78741;BME280;68062;48.726;9.370;2023-09-08T06:16:14;98998.22;;;17.02;91.46
78741;BME280;68062;48.726;9.370;2023-09-08T06:18:42;99007.91;;;17.63;87.12
78741;BME280;68062;48.726;9.370;2023-09-08T06:21:13;98999.84;;;18.93;79.93
78741;BME280;68062;48.726;9.370;2023-09-08T06:23:39;99002.94;;;19.56;75.86
78741;BME280;68062;48.726;9.370;2023-09-08T06:26:06;99010.41;;;20.17;72.21
78741;BME280;68062;48.726;9.370;2023-09-08T06:28:34;99002.31;;;20.47;70.88
78741;BME280;68062;48.726;9.370;2023-09-08T06:31:03;99009.28;;;20.46;70.58
78741;BME280;68062;48.726;9.370;2023-09-08T06:33:30;99001.22;;;20.97;69.43
78741;BME280;68062;48.726;9.370;2023-09-08T06:35:59;99001.34;;;20.71;69.57
78741;BME280;68062;48.726;9.370;2023-09-08T06:38:26;98976.59;;;20.13;71.07
78741;BME280;68062;48.726;9.370;2023-09-08T06:40:57;99011.75;;;20.95;69.52
78741;BME280;68062;48.726;9.370;2023-09-08T06:43:24;99003.28;;;21.31;68.13
78741;BME280;68062;48.726;9.370;2023-09-08T06:45:57;99005.72;;;21.78;66.67
78741;BME280;68062;48.726;9.370;2023-09-08T06:48:24;99004.28;;;21.70;66.27
78741;BME280;68062;48.726;9.370;2023-09-08T06:50:52;99006.47;;;22.39;64.70
78741;BME280;68062;48.726;9.370;2023-09-08T06:53:21;99000.31;;;23.31;61.41
78741;BME280;68062;48.726;9.370;2023-09-08T06:55:47;98999.91;;;23.74;58.87
78741;BME280;68062;48.726;9.370;2023-09-08T06:58:14;98967.44;;;23.06;60.00
78741;BME280;68062;48.726;9.370;2023-09-08T07:00:42;98998.28;;;23.18;60.77
78741;BME280;68062;48.726;9.370;2023-09-08T07:03:08;98999.91;;;22.67;63.18
78741;BME280;68062;48.726;9.370;2023-09-08T07:05:39;99000.63;;;23.25;61.32
78741;BME280;68062;48.726;9.370;2023-09-08T07:08:06;99000.72;;;23.74;59.29
78741;BME280;68062;48.726;9.370;2023-09-08T07:10:34;99002.03;;;24.81;56.10
78741;BME280;68062;48.726;9.370;2023-09-08T07:13:01;98998.56;;;25.25;54.22
78741;BME280;68062;48.726;9.370;2023-09-08T07:15:28;99004.16;;;24.58;56.22
78741;BME280;68062;48.726;9.370;2023-09-08T07:17:55;99000.19;;;25.28;53.59
78741;BME280;68062;48.726;9.370;2023-09-08T07:20:21;98989.06;;;24.46;55.53
78741;BME280;68062;48.726;9.370;2023-09-08T07:22:48;98995.59;;;24.38;56.29
78741;BME280;68062;48.726;9.370;2023-09-08T07:25:15;98994.00;;;25.29;54.73
78741;BME280;68062;48.726;9.370;2023-09-08T07:27:44;98988.31;;;25.51;54.01
78741;BME280;68062;48.726;9.370;2023-09-08T07:30:11;98990.94;;;24.76;55.76
78741;BME280;68062;48.726;9.370;2023-09-08T07:32:39;98993.97;;;24.84;55.75
78741;BME280;68062;48.726;9.370;2023-09-08T07:35:06;98992.88;;;24.24;58.18
78741;BME280;68062;48.726;9.370;2023-09-08T07:37:40;98978.41;;;24.95;55.39
78741;BME280;68062;48.726;9.370;2023-09-08T07:40:09;98956.56;;;24.79;55.60
78741;BME280;68062;48.726;9.370;2023-09-08T07:42:36;98976.53;;;25.42;54.50
78741;BME280;68062;48.726;9.370;2023-09-08T07:45:06;98971.53;;;25.38;54.07
78741;BME280;68062;48.726;9.370;2023-09-08T07:47:35;98966.88;;;26.70;50.87
78741;BME280;68062;48.726;9.370;2023-09-08T07:50:18;98973.81;;;28.28;46.70
78741;BME280;68062;48.726;9.370;2023-09-08T07:52:45;98969.38;;;28.29;46.81
78741;BME280;68062;48.726;9.370;2023-09-08T07:55:12;98964.75;;;27.56;47.28
78741;BME280;68062;48.726;9.370;2023-09-08T07:57:39;98972.41;;;27.46;48.09
78741;BME280;68062;48.726;9.370;2023-09-08T08:00:08;98968.19;;;27.18;47.73
78741;BME280;68062;48.726;9.370;2023-09-08T08:02:42;98963.50;;;27.99;46.99
78741;BME280;68062;48.726;9.370;2023-09-08T08:05:09;98960.38;;;27.68;47.58
78741;BME280;68062;48.726;9.370;2023-09-08T08:07:35;98957.00;;;27.27;47.82
78741;BME280;68062;48.726;9.370;2023-09-08T08:10:03;98963.84;;;27.17;48.36
78741;BME280;68062;48.726;9.370;2023-09-08T08:12:29;98962.72;;;27.60;47.48
78741;BME280;68062;48.726;9.370;2023-09-08T08:14:56;98961.00;;;27.33;47.44
78741;BME280;68062;48.726;9.370;2023-09-08T08:17:25;98956.16;;;27.14;47.68
78741;BME280;68062;48.726;9.370;2023-09-08T08:19:53;98957.41;;;27.34;47.10
78741;BME280;68062;48.726;9.370;2023-09-08T08:22:20;98956.09;;;28.04;45.74
78741;BME280;68062;48.726;9.370;2023-09-08T08:24:47;98955.47;;;28.87;44.46
78741;BME280;68062;48.726;9.370;2023-09-08T08:27:14;98953.00;;;28.72;44.06
78741;BME280;68062;48.726;9.370;2023-09-08T08:29:41;98953.00;;;27.73;45.34
78741;BME280;68062;48.726;9.370;2023-09-08T08:32:07;98946.38;;;29.02;43.79
78741;BME280;68062;48.726;9.370;2023-09-08T08:34:36;98950.41;;;28.84;44.55
78741;BME280;68062;48.726;9.370;2023-09-08T08:37:03;98940.38;;;29.12;44.16
78741;BME280;68062;48.726;9.370;2023-09-08T08:39:29;98943.69;;;28.55;44.18
78741;BME280;68062;48.726;9.370;2023-09-08T08:41:56;98938.88;;;29.55;42.95
78741;BME280;68062;48.726;9.370;2023-09-08T08:44:23;98936.13;;;30.78;40.23
78741;BME280;68062;48.726;9.370;2023-09-08T08:46:50;98931.16;;;31.27;39.36
78741;BME280;68062;48.726;9.370;2023-09-08T08:49:18;98938.13;;;31.50;38.50
78741;BME280;68062;48.726;9.370;2023-09-08T08:51:48;98937.72;;;31.23;39.62
78741;BME280;68062;48.726;9.370;2023-09-08T08:54:16;98931.81;;;30.98;39.67
78741;BME280;68062;48.726;9.370;2023-09-08T08:56:43;98926.31;;;31.33;38.89
78741;BME280;68062;48.726;9.370;2023-09-08T08:59:10;98928.63;;;31.57;37.81
78741;BME280;68062;48.726;9.370;2023-09-08T09:01:37;98931.44;;;31.96;37.62
78741;BME280;68062;48.726;9.370;2023-09-08T09:04:05;98887.53;;;30.78;38.57
78741;BME280;68062;48.726;9.370;2023-09-08T09:06:32;98922.25;;;31.38;38.29
78741;BME280;68062;48.726;9.370;2023-09-08T09:09:01;98924.81;;;31.50;38.71
78741;BME280;68062;48.726;9.370;2023-09-08T09:11:28;98923.38;;;30.72;39.34
78741;BME280;68062;48.726;9.370;2023-09-08T09:13:55;98915.84;;;31.41;38.93
78741;BME280;68062;48.726;9.370;2023-09-08T09:16:22;98912.03;;;31.34;38.70
78741;BME280;68062;48.726;9.370;2023-09-08T09:18:54;98907.97;;;31.08;39.08
78741;BME280;68062;48.726;9.370;2023-09-08T09:21:21;98911.91;;;30.93;39.45
78741;BME280;68062;48.726;9.370;2023-09-08T09:23:49;98908.09;;;30.86;39.42
78741;BME280;68062;48.726;9.370;2023-09-08T09:26:25;98905.66;;;31.46;38.71
78741;BME280;68062;48.726;9.370;2023-09-08T09:28:52;98907.81;;;31.31;39.00
78741;BME280;68062;48.726;9.370;2023-09-08T09:31:22;98904.88;;;30.82;39.31
78741;BME280;68062;48.726;9.370;2023-09-08T09:34:01;98905.13;;;31.21;39.11
78741;BME280;68062;48.726;9.370;2023-09-08T09:36:30;98901.53;;;31.32;38.54
78741;BME280;68062;48.726;9.370;2023-09-08T09:38:58;98912.00;;;32.06;37.36
78741;BME280;68062;48.726;9.370;2023-09-08T09:41:27;98903.53;;;32.91;36.16
78741;BME280;68062;48.726;9.370;2023-09-08T09:43:55;98902.69;;;32.41;37.02
78741;BME280;68062;48.726;9.370;2023-09-08T09:46:21;98900.16;;;32.39;36.66
78741;BME280;68062;48.726;9.370;2023-09-08T09:48:50;98886.69;;;33.00;35.85
78741;BME280;68062;48.726;9.370;2023-09-08T09:51:19;98891.63;;;32.75;35.89
78741;BME280;68062;48.726;9.370;2023-09-08T09:53:46;98898.19;;;32.81;35.82
78741;BME280;68062;48.726;9.370;2023-09-08T09:56:13;98901.88;;;32.50;36.22
78741;BME280;68062;48.726;9.370;2023-09-08T09:58:43;98879.28;;;31.64;37.37
78741;BME280;68062;48.726;9.370;2023-09-08T10:01:10;98900.69;;;33.02;36.30
78741;BME280;68062;48.726;9.370;2023-09-08T10:03:38;98889.88;;;33.79;34.73
78741;BME280;68062;48.726;9.370;2023-09-08T10:06:06;98886.09;;;34.46;33.90
78741;BME280;68062;48.726;9.370;2023-09-08T10:08:34;98884.16;;;33.08;35.81
78741;BME280;68062;48.726;9.370;2023-09-08T10:11:05;98833.97;;;33.87;34.61
78741;BME280;68062;48.726;9.370;2023-09-08T10:13:38;98877.84;;;33.37;35.19
78741;BME280;68062;48.726;9.370;2023-09-08T10:16:07;98868.00;;;33.10;35.86
78741;BME280;68062;48.726;9.370;2023-09-08T10:18:35;98862.31;;;32.95;36.80
78741;BME280;68062;48.726;9.370;2023-09-08T10:21:04;98867.94;;;33.29;36.74
78741;BME280;68062;48.726;9.370;2023-09-08T10:23:36;98857.72;;;33.81;35.60
78741;BME280;68062;48.726;9.370;2023-09-08T10:26:06;98861.34;;;34.88;33.38
78741;BME280;68062;48.726;9.370;2023-09-08T10:28:36;98860.53;;;34.25;34.97
78741;BME280;68062;48.726;9.370;2023-09-08T10:31:03;98869.38;;;34.08;35.02
78741;BME280;68062;48.726;9.370;2023-09-08T10:33:32;98862.38;;;33.79;34.63
78741;BME280;68062;48.726;9.370;2023-09-08T10:36:00;98858.47;;;34.37;34.75
78741;BME280;68062;48.726;9.370;2023-09-08T10:38:31;98859.47;;;33.90;34.62
78741;BME280;68062;48.726;9.370;2023-09-08T10:41:25;98855.94;;;34.54;34.51
78741;BME280;68062;48.726;9.370;2023-09-08T10:43:55;98855.00;;;33.35;35.24
78741;BME280;68062;48.726;9.370;2023-09-08T10:46:24;98866.09;;;33.40;35.30
78741;BME280;68062;48.726;9.370;2023-09-08T10:48:54;98852.31;;;33.44;34.82
78741;BME280;68062;48.726;9.370;2023-09-08T10:51:22;98849.25;;;33.67;35.54
78741;BME280;68062;48.726;9.370;2023-09-08T10:53:50;98856.84;;;32.96;35.87
78741;BME280;68062;48.726;9.370;2023-09-08T10:56:17;98846.56;;;33.67;35.34
78741;BME280;68062;48.726;9.370;2023-09-08T10:58:48;98844.03;;;33.10;35.20
78741;BME280;68062;48.726;9.370;2023-09-08T11:01:17;98848.44;;;32.71;36.72
78741;BME280;68062;48.726;9.370;2023-09-08T11:03:45;98846.81;;;32.51;37.52
78741;BME280;68062;48.726;9.370;2023-09-08T11:06:17;98849.75;;;32.48;37.13
78741;BME280;68062;48.726;9.370;2023-09-08T11:08:45;98852.38;;;32.08;38.33
78741;BME280;68062;48.726;9.370;2023-09-08T11:11:13;98844.25;;;31.90;38.29
78741;BME280;68062;48.726;9.370;2023-09-08T11:13:40;98848.78;;;31.59;39.39
78741;BME280;68062;48.726;9.370;2023-09-08T11:16:07;98843.56;;;32.18;38.62
78741;BME280;68062;48.726;9.370;2023-09-08T11:18:34;98843.84;;;32.05;39.47
78741;BME280;68062;48.726;9.370;2023-09-08T11:21:02;98841.31;;;32.03;39.02
78741;BME280;68062;48.726;9.370;2023-09-08T11:23:30;98842.59;;;32.19;39.75
78741;BME280;68062;48.726;9.370;2023-09-08T11:25:59;98848.63;;;32.40;38.84
78741;BME280;68062;48.726;9.370;2023-09-08T11:28:26;98817.91;;;32.85;37.75
78741;BME280;68062;48.726;9.370;2023-09-08T11:30:54;98827.22;;;33.09;37.35
78741;BME280;68062;48.726;9.370;2023-09-08T11:33:22;98830.75;;;33.28;36.74
78741;BME280;68062;48.726;9.370;2023-09-08T11:35:50;98832.06;;;33.80;35.66
78741;BME280;68062;48.726;9.370;2023-09-08T11:38:17;98800.81;;;33.90;34.84
78741;BME280;68062;48.726;9.370;2023-09-08T11:40:46;98824.97;;;34.43;35.72
78741;BME280;68062;48.726;9.370;2023-09-08T11:43:13;98825.41;;;33.66;37.09
78741;BME280;68062;48.726;9.370;2023-09-08T11:45:42;98824.72;;;33.36;37.67
78741;BME280;68062;48.726;9.370;2023-09-08T11:48:09;98823.56;;;33.38;37.61
78741;BME280;68062;48.726;9.370;2023-09-08T11:50:36;98829.03;;;34.11;36.65
78741;BME280;68062;48.726;9.370;2023-09-08T11:53:03;98823.22;;;34.33;35.51
78741;BME280;68062;48.726;9.370;2023-09-08T11:55:31;98830.97;;;33.72;36.79
78741;BME280;68062;48.726;9.370;2023-09-08T11:58:00;98825.13;;;34.59;34.28
78741;BME280;68062;48.726;9.370;2023-09-08T12:00:27;98820.81;;;34.93;33.29
78741;BME280;68062;48.726;9.370;2023-09-08T12:02:54;98810.56;;;34.36;33.43
78741;BME280;68062;48.726;9.370;2023-09-08T12:05:22;98801.56;;;34.55;34.47
78741;BME280;68062;48.726;9.370;2023-09-08T12:07:50;98814.72;;;36.61;31.60
78741;BME280;68062;48.726;9.370;2023-09-08T12:10:17;98806.31;;;36.48;29.99
78741;BME280;68062;48.726;9.370;2023-09-08T12:12:45;98819.31;;;35.60;31.06
78741;BME280;68062;48.726;9.370;2023-09-08T12:15:29;98820.38;;;34.98;31.78
78741;BME280;68062;48.726;9.370;2023-09-08T12:17:57;98817.47;;;35.60;31.75
78741;BME280;68062;48.726;9.370;2023-09-08T12:20:23;98804.84;;;36.12;31.33
78741;BME280;68062;48.726;9.370;2023-09-08T12:22:50;98814.53;;;37.28;30.01
78741;BME280;68062;48.726;9.370;2023-09-08T12:25:17;98754.94;;;35.53;30.84
78741;BME280;68062;48.726;9.370;2023-09-08T12:27:45;98798.94;;;35.84;31.30
78741;BME280;68062;48.726;9.370;2023-09-08T12:30:18;98797.97;;;36.43;31.72
78741;BME280;68062;48.726;9.370;2023-09-08T12:32:47;98804.59;;;34.86;32.96
78741;BME280;68062;48.726;9.370;2023-09-08T12:35:19;98793.66;;;33.90;34.88
78741;BME280;68062;48.726;9.370;2023-09-08T12:37:53;98796.06;;;35.60;33.28
78741;BME280;68062;48.726;9.370;2023-09-08T12:40:20;98790.53;;;37.89;29.56
78741;BME280;68062;48.726;9.370;2023-09-08T12:42:47;98800.59;;;37.95;29.36
78741;BME280;68062;48.726;9.370;2023-09-08T12:45:15;98796.78;;;37.58;29.69
78741;BME280;68062;48.726;9.370;2023-09-08T12:47:43;98783.63;;;38.18;28.46
78741;BME280;68062;48.726;9.370;2023-09-08T12:50:10;98790.66;;;38.19;28.58
78741;BME280;68062;48.726;9.370;2023-09-08T12:52:38;98782.88;;;38.78;27.33
78741;BME280;68062;48.726;9.370;2023-09-08T12:55:05;98786.06;;;38.28;28.67
78741;BME280;68062;48.726;9.370;2023-09-08T12:57:32;98784.13;;;38.90;27.65
78741;BME280;68062;48.726;9.370;2023-09-08T12:59:59;98780.41;;;39.58;26.48